Albany Center, VT

12:47 AM EST on December 15, 2019 (GMT -0500)
Cloverworks Farm, Creek Rd Albany | | Change Station

Elev 1164 ft 44.71 °N, 72.34 °W | Updated 15 seconds ago

Overcast
Overcast
39 °F
Feels Like 31 °F
N
12.8
Wind Variable Wind from WNW
Gusts 14.8 mph

Today
High -- | Low -- °F
--% Chance of Precip.
Yesterday
High -- | Low -- °F
Precip. -- in
Pressure 28.98 in
Visibility 5.0 miles
Clouds Mostly Cloudy 1600 ft
Mostly Cloudy 2400 ft
Overcast 3600 ft
Windchill 31 °F
Dew Point 38 °F
Humidity 96%
Rainfall 0.01 in
Snow Depth Not available.
7:19 AM 4:09 PM
Waning Gibbous, 89% visible
METAR KEFK 150536Z AUTO 22018G27KT 5SM RA BKN016 BKN024 OVC036 06/05 A2898 RMK AO2 T00590050
Pressure 28.98 in
Visibility 5.0 miles
Clouds Mostly Cloudy 1600 ft
Mostly Cloudy 2400 ft
Overcast 3600 ft
Windchill 31 °F
Dew Point 38 °F
Humidity 96%
Rainfall 0.01 in
Snow Depth Not available.
7:19 AM 4:09 PM
Waning Gibbous, 89% visible
METAR KEFK 150536Z AUTO 22018G27KT 5SM RA BKN016 BKN024 OVC036 06/05 A2898 RMK AO2 T00590050

Get Severe Weather Alerts

Thanks for signing up!

Be on the lookout for a verification email in your inbox.

You'll start receiving the daily forecast at 6 AM.

×

10-Day Weather Forecast

Almanac

Astronomy

Dec. 15, 2019 Rise Set
Actual Time
Civil Twilight
Nautical Twilight
Astronomical Twilight
Moon
Length of Visible Light
Length of Day
Tomorrow will be .
, % of the Moon is Illuminated

Today's Extremes

State Highs State Lows

Community

WunderPhotos

Category 6

Welcome to Category 6. This is the collective home for Weather Underground's featured writeups by Dr. Jeff Masters (right), Bob Henson (left), Chris Burt, and other regular contributors.

Nearby

Air Quality

  Air Quality AQ Index Pollutant
Not available.

Snow Depth

Station Depth Elevation

Earthquake Activity

City Distance Mag. Time & Date
Minimum magnitude displayed is 2.5.

Coastal Water Temperatures

Place Temperature

Stations

Nearby Weather Stations

Station Location Temp. Windchill Dew Point Humidity Wind Precip. Elev Updated Type
                   

Watches & Warnings

There are currently no watches in effect.